createdAt,value
2022-11-22T00:01:20.837Z,3.44
2022-11-22T00:03:49.141Z,3.61
2022-11-22T00:06:18.330Z,3.54
2022-11-22T00:08:49.569Z,3.58
2022-11-22T00:11:17.831Z,3.56
2022-11-22T00:13:46.106Z,3.58
2022-11-22T00:16:15.715Z,3.54
2022-11-22T00:18:44.021Z,3.55
2022-11-22T00:21:16.541Z,3.50
2022-11-22T00:23:44.851Z,3.53
2022-11-22T00:26:13.149Z,3.47
2022-11-22T00:28:41.464Z,3.54
2022-11-22T00:31:09.732Z,3.55
2022-11-22T00:33:39.383Z,3.60
2022-11-22T00:36:07.802Z,3.65
2022-11-22T00:38:36.293Z,3.55
2022-11-22T00:41:04.584Z,3.63
2022-11-22T00:43:32.932Z,3.57
2022-11-22T00:46:01.641Z,3.64
2022-11-22T00:48:30.027Z,3.75
2022-11-22T00:50:59.932Z,3.57
2022-11-22T00:53:28.233Z,3.66
2022-11-22T00:55:56.478Z,3.63
2022-11-22T00:58:24.779Z,3.69
2022-11-22T01:00:56.495Z,3.72
2022-11-22T01:03:25.126Z,3.68
2022-11-22T01:05:53.435Z,3.59
2022-11-22T01:08:23.156Z,3.48
2022-11-22T01:10:57.597Z,3.44
2022-11-22T01:13:25.996Z,3.60
2022-11-22T01:15:54.534Z,3.54
2022-11-22T01:18:22.805Z,3.64
2022-11-22T01:20:51.064Z,3.54
2022-11-22T01:23:19.298Z,3.61
2022-11-22T01:25:49.017Z,3.60
2022-11-22T01:28:17.506Z,3.54
2022-11-22T01:30:45.986Z,3.61
2022-11-22T01:33:14.264Z,3.56
2022-11-22T01:35:42.597Z,3.56
2022-11-22T01:38:11.152Z,3.77
2022-11-22T01:40:39.923Z,3.61
2022-11-22T01:43:18.242Z,3.71
2022-11-22T01:45:54.144Z,2.83
2022-11-22T01:48:45.481Z,3.60
2022-11-22T01:51:21.488Z,3.58
2022-11-22T01:53:51.007Z,3.65
2022-11-22T01:56:22.261Z,3.63
2022-11-22T01:58:58.012Z,3.61
2022-11-22T02:01:26.388Z,3.64
2022-11-22T02:03:57.946Z,3.61
2022-11-22T02:06:34.136Z,3.49
2022-11-22T02:09:09.008Z,3.54
2022-11-22T02:11:42.878Z,3.48
2022-11-22T02:14:13.398Z,3.54
2022-11-22T02:16:43.531Z,3.58
2022-11-22T02:19:17.461Z,3.68
2022-11-22T02:21:50.134Z,3.66
2022-11-22T02:24:23.469Z,3.29
2022-11-22T02:26:53.099Z,3.70
2022-11-22T02:29:22.585Z,3.63
2022-11-22T02:31:50.857Z,3.66
2022-11-22T02:34:19.124Z,3.69
2022-11-22T02:36:51.537Z,3.74
2022-11-22T02:39:27.037Z,3.62
2022-11-22T02:41:58.062Z,3.66
2022-11-22T02:44:27.148Z,3.75
2022-11-22T02:46:56.654Z,3.69
2022-11-22T02:49:26.411Z,3.71
2022-11-22T02:51:54.722Z,3.76
2022-11-22T02:54:23.406Z,3.72
2022-11-22T02:56:51.935Z,3.71
2022-11-22T02:59:21.551Z,3.86
2022-11-22T03:01:50.689Z,3.63
2022-11-22T03:04:25.532Z,3.69
2022-11-22T03:06:59.087Z,3.73
2022-11-22T03:09:29.026Z,3.31
2022-11-22T03:11:57.849Z,3.61
2022-11-22T03:14:27.479Z,3.55
2022-11-22T03:16:56.200Z,3.65
2022-11-22T03:19:24.444Z,3.72
2022-11-22T03:21:52.787Z,3.66
2022-11-22T03:24:21.241Z,3.56
2022-11-22T03:26:50.564Z,3.57
2022-11-22T03:29:19.362Z,3.54
2022-11-22T03:31:48.992Z,3.71
2022-11-22T03:34:17.666Z,3.55
2022-11-22T03:36:45.893Z,3.60
2022-11-22T03:39:14.093Z,3.70
2022-11-22T03:41:42.347Z,3.64
2022-11-22T03:44:10.550Z,3.60
2022-11-22T03:46:38.754Z,3.58
2022-11-22T03:49:08.355Z,3.68
2022-11-22T03:51:36.578Z,3.70
2022-11-22T03:54:04.987Z,3.59
2022-11-22T03:56:33.259Z,3.63
2022-11-22T03:59:01.679Z,3.65
2022-11-22T04:01:30.035Z,3.65
2022-11-22T04:03:58.286Z,3.79
2022-11-22T04:06:27.856Z,3.71
2022-11-22T04:08:56.118Z,3.83
2022-11-22T04:11:24.359Z,3.61
2022-11-22T04:14:10.355Z,3.80
2022-11-22T04:16:38.700Z,3.71
2022-11-22T04:19:06.993Z,3.70
2022-11-22T04:21:35.608Z,3.91
2022-11-22T04:24:24.452Z,3.86
2022-11-22T04:26:53.369Z,3.84
2022-11-22T04:29:22.114Z,4.55
2022-11-22T04:32:09.315Z,4.03
2022-11-22T04:34:38.603Z,3.91
2022-11-22T04:37:08.196Z,3.97
2022-11-22T04:39:36.438Z,4.00
2022-11-22T04:42:22.243Z,4.02
2022-11-22T04:44:50.491Z,3.97
2022-11-22T04:47:33.952Z,4.13
2022-11-22T04:50:02.537Z,3.99
2022-11-22T04:52:49.806Z,4.09
2022-11-22T04:55:17.987Z,4.08
2022-11-22T04:57:46.206Z,4.12
2022-11-22T05:00:15.762Z,4.13
2022-11-22T05:02:44.005Z,4.17
2022-11-22T05:05:14.330Z,4.23
2022-11-22T05:07:43.947Z,4.15
2022-11-22T05:10:12.728Z,4.21
2022-11-22T05:12:42.838Z,4.07
2022-11-22T05:15:12.556Z,4.34
2022-11-22T05:17:40.833Z,4.20
2022-11-22T05:20:11.139Z,4.22
2022-11-22T05:22:56.621Z,4.22
2022-11-22T05:25:26.180Z,4.30
2022-11-22T05:27:55.248Z,4.23
2022-11-22T05:30:23.791Z,4.33
2022-11-22T05:32:51.992Z,4.35
2022-11-22T05:35:20.194Z,4.22
2022-11-22T05:37:48.381Z,4.24
2022-11-22T05:40:16.785Z,4.37
2022-11-22T05:42:46.399Z,4.32
2022-11-22T05:45:14.694Z,4.20
2022-11-22T05:47:43.003Z,4.32
2022-11-22T05:50:11.378Z,4.38
2022-11-22T05:52:39.631Z,4.36
2022-11-22T05:55:08.960Z,4.27
2022-11-22T05:57:37.282Z,4.33
2022-11-22T06:00:08.760Z,4.27
2022-11-22T06:02:40.147Z,4.14
2022-11-22T06:05:09.551Z,4.07
2022-11-22T06:07:37.854Z,4.19
2022-11-22T06:10:06.797Z,4.13
2022-11-22T06:12:35.052Z,4.22
2022-11-22T06:15:03.395Z,4.11
2022-11-22T06:17:33.009Z,4.11
2022-11-22T06:20:05.716Z,4.07
2022-11-22T06:22:34.577Z,4.08
2022-11-22T06:25:02.813Z,4.03
2022-11-22T06:27:31.386Z,4.08
2022-11-22T06:29:59.608Z,4.05
2022-11-22T06:32:27.870Z,4.07
2022-11-22T06:34:57.431Z,3.98
2022-11-22T06:37:25.670Z,3.90
2022-11-22T06:39:53.898Z,3.97
2022-11-22T06:42:22.094Z,3.92
2022-11-22T06:44:50.543Z,4.06
2022-11-22T06:47:18.810Z,3.91
2022-11-22T06:49:47.187Z,3.87
2022-11-22T06:52:16.739Z,3.77
2022-11-22T06:54:44.936Z,3.81
2022-11-22T06:57:15.225Z,3.63
2022-11-22T06:59:43.425Z,3.47
2022-11-22T07:02:14.833Z,3.55
2022-11-22T07:05:09.313Z,3.63
2022-11-22T07:07:36.447Z,3.63
2022-11-22T07:10:05.292Z,3.48
2022-11-22T07:12:33.550Z,3.45
2022-11-22T07:15:01.755Z,3.42
2022-11-22T07:17:29.974Z,3.45
2022-11-22T07:19:58.169Z,3.52
2022-11-22T07:22:26.419Z,3.51
2022-11-22T07:24:56.005Z,3.41
2022-11-22T07:27:24.207Z,3.47
2022-11-22T07:29:52.626Z,3.43
2022-11-22T07:32:20.824Z,3.43
2022-11-22T07:34:49.008Z,3.50
2022-11-22T07:37:17.250Z,3.45
2022-11-22T07:39:45.447Z,3.55
2022-11-22T07:42:15.090Z,3.47
2022-11-22T07:44:44.958Z,3.68
2022-11-22T07:47:15.275Z,3.61
2022-11-22T07:49:46.656Z,3.63
2022-11-22T07:52:15.380Z,3.63
2022-11-22T07:54:43.698Z,3.85
2022-11-22T07:57:11.985Z,3.73
2022-11-22T07:59:41.531Z,3.85
2022-11-22T08:02:12.667Z,3.76
2022-11-22T08:04:41.141Z,3.77
2022-11-22T08:07:09.508Z,3.80
2022-11-22T08:09:38.139Z,3.83
2022-11-22T08:12:06.703Z,3.76
2022-11-22T08:14:37.064Z,3.69
2022-11-22T08:17:06.721Z,3.88
2022-11-22T08:19:35.778Z,3.83
2022-11-22T08:22:04.088Z,3.87
2022-11-22T08:24:33.771Z,3.83
2022-11-22T08:27:02.044Z,3.92
2022-11-22T08:29:30.570Z,3.89
2022-11-22T08:31:58.977Z,3.89
2022-11-22T08:34:28.550Z,4.02
2022-11-22T08:36:56.778Z,4.03
2022-11-22T08:39:25.134Z,3.71
2022-11-22T08:41:53.327Z,4.05
2022-11-22T08:44:21.517Z,4.21
2022-11-22T08:46:49.724Z,4.19
2022-11-22T08:49:17.943Z,3.34
2022-11-22T08:51:47.507Z,4.31
2022-11-22T08:54:16.544Z,4.17
2022-11-22T08:56:44.773Z,4.29
2022-11-22T08:59:13.061Z,4.31
2022-11-22T09:01:41.297Z,4.34
2022-11-22T09:04:09.730Z,4.15
2022-11-22T09:09:43.934Z,4.39
2022-11-22T09:12:12.270Z,4.37
2022-11-22T09:14:40.653Z,4.32
2022-11-22T09:17:13.185Z,4.60
2022-11-22T09:19:44.457Z,4.58
2022-11-22T09:22:12.668Z,4.61
2022-11-22T09:24:42.267Z,4.59
2022-11-22T09:27:10.499Z,4.57
2022-11-22T09:29:38.716Z,4.71
2022-11-22T09:32:11.058Z,4.60
2022-11-22T09:34:39.314Z,4.69
2022-11-22T09:37:07.543Z,4.72
2022-11-22T09:39:35.790Z,4.85
2022-11-22T09:42:43.333Z,4.96
2022-11-22T09:45:52.587Z,5.04
2022-11-22T09:48:42.523Z,4.91
2022-11-22T09:51:15.525Z,4.97
2022-11-22T09:53:50.287Z,5.04
2022-11-22T09:56:21.435Z,5.09
2022-11-22T09:59:00.622Z,5.10
2022-11-22T10:01:33.211Z,5.13
2022-11-22T10:04:07.720Z,5.14
2022-11-22T10:06:39.608Z,5.07
2022-11-22T10:09:23.844Z,5.26
2022-11-22T10:11:57.296Z,4.99
2022-11-22T10:14:39.807Z,5.40
2022-11-22T10:17:32.019Z,5.46
2022-11-22T10:20:10.596Z,5.31
2022-11-22T10:22:39.599Z,4.39
2022-11-22T10:25:18.428Z,5.55
2022-11-22T10:27:57.577Z,5.68
2022-11-22T10:30:37.101Z,5.75
2022-11-22T10:33:14.418Z,5.91
2022-11-22T10:36:04.788Z,5.93
2022-11-22T10:39:19.290Z,6.06
2022-11-22T10:42:22.576Z,5.94
2022-11-22T10:45:01.873Z,6.05
2022-11-22T10:47:50.072Z,5.96
2022-11-22T10:50:24.337Z,5.89
2022-11-22T10:53:03.100Z,5.50
2022-11-22T10:55:50.081Z,6.06
2022-11-22T10:58:28.549Z,6.15
2022-11-22T11:01:05.603Z,6.21
2022-11-22T11:03:39.939Z,5.42
2022-11-22T11:06:24.447Z,6.17
2022-11-22T11:11:56.290Z,6.19
2022-11-22T11:14:32.477Z,6.31
2022-11-22T11:17:02.776Z,6.24
2022-11-22T11:19:38.708Z,6.25
2022-11-22T11:22:30.423Z,6.47
2022-11-22T11:25:32.765Z,6.34
2022-11-22T11:28:05.237Z,6.23
2022-11-22T11:30:45.404Z,6.49
2022-11-22T11:33:26.907Z,6.46
2022-11-22T11:36:04.051Z,6.45
2022-11-22T11:38:36.975Z,6.51
2022-11-22T11:41:31.636Z,6.48
2022-11-22T11:44:01.876Z,6.05
2022-11-22T11:46:45.075Z,6.56
2022-11-22T11:49:17.721Z,6.34
2022-11-22T11:51:49.267Z,6.39
2022-11-22T11:54:20.699Z,6.22
2022-11-22T11:56:51.916Z,6.36
2022-11-22T11:59:22.664Z,6.34
2022-11-22T12:01:58.692Z,6.30
2022-11-22T12:04:30.714Z,6.27
2022-11-22T12:07:16.908Z,6.27
2022-11-22T12:09:47.777Z,6.40
2022-11-22T12:12:43.578Z,6.32
2022-11-22T12:15:21.786Z,6.24
2022-11-22T12:18:01.343Z,6.29
2022-11-22T12:20:42.763Z,6.25
2022-11-22T12:23:19.795Z,6.27
2022-11-22T12:25:48.845Z,6.39
2022-11-22T12:28:20.615Z,6.22
2022-11-22T12:30:56.886Z,6.21
2022-11-22T12:33:31.777Z,6.23
2022-11-22T12:36:00.285Z,6.24
2022-11-22T12:38:35.375Z,6.11
2022-11-22T12:41:09.121Z,6.17
2022-11-22T12:43:45.870Z,6.13
2022-11-22T12:46:26.085Z,6.11
2022-11-22T12:48:58.097Z,6.13
2022-11-22T12:51:33.925Z,5.97
2022-11-22T12:54:09.591Z,6.02
2022-11-22T12:56:45.788Z,6.01
2022-11-22T12:59:25.235Z,6.03
2022-11-22T13:02:06.537Z,6.05
2022-11-22T13:04:50.723Z,5.19
2022-11-22T13:07:28.646Z,5.99
2022-11-22T13:10:04.784Z,6.01
2022-11-22T13:12:37.732Z,5.08
2022-11-22T13:15:06.997Z,5.98
2022-11-22T13:17:38.632Z,5.89
2022-11-22T13:20:14.413Z,6.07
2022-11-22T13:23:04.017Z,5.94
2022-11-22T13:25:48.712Z,5.98
2022-11-22T13:28:21.185Z,6.01
2022-11-22T13:31:08.793Z,5.96
2022-11-22T13:33:39.864Z,5.91
2022-11-22T13:36:39.026Z,6.00
2022-11-22T13:39:14.282Z,5.91
2022-11-22T13:41:55.689Z,5.88
2022-11-22T13:44:39.484Z,5.95
2022-11-22T13:47:43.068Z,5.85
2022-11-22T13:51:00.197Z,5.92
2022-11-22T13:53:32.913Z,5.82
2022-11-22T13:56:55.473Z,5.69
2022-11-22T13:59:23.716Z,5.86
2022-11-22T14:02:22.899Z,5.53
2022-11-22T14:04:56.636Z,5.69
2022-11-22T14:07:46.695Z,5.81
2022-11-22T14:10:34.695Z,5.24
2022-11-22T14:13:25.395Z,5.89
2022-11-22T14:16:11.368Z,5.78
2022-11-22T14:18:55.334Z,5.75
2022-11-22T14:22:01.718Z,5.78
2022-11-22T14:24:49.334Z,5.69
2022-11-22T14:27:36.780Z,5.68
2022-11-22T14:30:14.931Z,4.90
2022-11-22T14:32:56.906Z,5.81
2022-11-22T14:35:37.637Z,5.72
2022-11-22T14:38:32.071Z,5.74
2022-11-22T14:41:43.455Z,5.81
2022-11-22T14:44:17.879Z,5.71
2022-11-22T14:46:54.659Z,5.60
2022-11-22T14:49:34.289Z,5.68
2022-11-22T14:52:03.572Z,5.55
2022-11-22T14:54:44.560Z,5.62
2022-11-22T14:57:20.490Z,5.58
2022-11-22T15:00:13.624Z,5.55
2022-11-22T15:03:32.292Z,5.61
2022-11-22T15:09:13.960Z,5.63
2022-11-22T15:10:03.743Z,5.67
2022-11-22T15:13:05.793Z,5.81
2022-11-22T15:59:18.164Z,4.95
2022-11-22T16:01:47.126Z,4.93
2022-11-22T16:04:24.299Z,4.82
2022-11-22T16:06:53.399Z,4.87
2022-11-22T16:09:30.050Z,4.74
2022-11-22T16:12:02.288Z,4.85
2022-11-22T16:14:46.270Z,4.80
2022-11-22T16:17:30.432Z,4.75
2022-11-22T16:20:30.226Z,4.82
2022-11-22T16:23:13.752Z,4.90
2022-11-22T16:25:45.361Z,4.78
2022-11-22T16:28:31.056Z,4.85
2022-11-22T16:31:02.295Z,4.11
2022-11-22T16:33:31.702Z,4.86
2022-11-22T16:36:01.824Z,4.89
2022-11-22T16:38:30.605Z,4.77
2022-11-22T16:41:00.406Z,4.96
2022-11-22T16:43:35.629Z,4.93
2022-11-22T16:46:04.560Z,4.94
2022-11-22T16:48:33.637Z,4.83
2022-11-22T16:51:06.514Z,4.14
2022-11-22T16:53:42.625Z,4.88
2022-11-22T16:56:19.401Z,4.85
2022-11-22T16:58:48.835Z,4.81
2022-11-22T17:01:20.374Z,3.81
2022-11-22T17:03:50.992Z,4.82
2022-11-22T17:06:21.910Z,4.68
2022-11-22T17:08:52.915Z,4.62
2022-11-22T17:11:25.390Z,4.67
2022-11-22T17:13:55.023Z,4.64
2022-11-22T17:16:23.206Z,4.40
2022-11-22T17:18:52.978Z,4.61
2022-11-22T17:21:30.341Z,4.62
2022-11-22T17:24:05.640Z,4.57
2022-11-22T17:26:35.629Z,4.46
2022-11-22T17:29:03.880Z,4.60
2022-11-22T17:31:32.327Z,4.42
2022-11-22T17:34:00.986Z,4.43
2022-11-22T17:36:31.417Z,4.27
2022-11-22T17:39:01.386Z,4.28
2022-11-22T17:41:30.383Z,4.22
2022-11-22T17:44:00.345Z,4.18
2022-11-22T17:46:31.263Z,4.11
2022-11-22T17:49:01.966Z,4.12
2022-11-22T17:51:31.148Z,4.13
2022-11-22T17:53:59.801Z,4.06
2022-11-22T17:56:30.425Z,4.15
2022-11-22T17:59:00.091Z,3.76
2022-11-22T18:01:28.340Z,4.30
2022-11-22T18:03:56.607Z,4.33
2022-11-22T18:06:26.156Z,4.35
2022-11-22T18:08:54.372Z,4.42
2022-11-22T18:11:22.628Z,4.46
2022-11-22T18:13:51.255Z,4.52
2022-11-22T18:16:22.201Z,4.60
2022-11-22T18:18:58.441Z,4.45
2022-11-22T18:21:28.938Z,4.45
2022-11-22T18:23:58.750Z,4.40
2022-11-22T18:26:42.823Z,4.45
2022-11-22T18:32:03.265Z,4.70
2022-11-22T18:34:31.967Z,4.64
2022-11-22T18:37:02.927Z,4.57
2022-11-22T18:39:34.106Z,4.68
2022-11-22T18:42:02.857Z,4.60
2022-11-22T18:44:31.183Z,4.60
2022-11-22T18:46:59.406Z,4.59
2022-11-22T18:49:29.362Z,4.62
2022-11-22T18:51:58.031Z,4.45
2022-11-22T18:54:26.459Z,4.63
2022-11-22T18:56:55.568Z,4.59
2022-11-22T18:59:24.157Z,4.45
2022-11-22T19:01:52.356Z,4.52
2022-11-22T19:04:21.981Z,4.54
2022-11-22T19:06:59.755Z,4.58
2022-11-22T19:09:27.961Z,4.43
2022-11-22T19:11:58.704Z,4.49
2022-11-22T19:14:31.894Z,4.35
2022-11-22T19:17:00.843Z,4.33
2022-11-22T19:19:32.083Z,4.37
2022-11-22T19:22:02.384Z,4.40
2022-11-22T19:24:31.035Z,4.38
2022-11-22T19:26:59.411Z,4.34
2022-11-22T19:29:27.701Z,4.33
2022-11-22T19:31:55.999Z,4.49
2022-11-22T19:34:24.217Z,4.52
2022-11-22T19:36:52.479Z,4.50
2022-11-22T19:39:22.064Z,4.45
2022-11-22T19:41:50.352Z,4.37
2022-11-22T19:44:18.555Z,4.40
2022-11-22T19:46:46.910Z,4.28
2022-11-22T19:49:15.088Z,4.28
2022-11-22T19:51:43.304Z,4.38
2022-11-22T19:54:11.745Z,4.42
2022-11-22T19:56:41.545Z,4.42
2022-11-22T19:59:12.886Z,4.36
2022-11-22T20:01:41.238Z,4.54
2022-11-22T20:04:17.159Z,4.34
2022-11-22T20:06:49.974Z,4.28
2022-11-22T20:09:18.830Z,3.87
2022-11-22T20:11:48.363Z,4.16
2022-11-22T20:14:16.567Z,4.09
2022-11-22T20:16:45.004Z,4.12
2022-11-22T20:19:13.491Z,4.23
2022-11-22T20:21:42.759Z,4.18
2022-11-22T20:24:11.368Z,4.11
2022-11-22T20:26:39.786Z,4.00
2022-11-22T20:29:15.125Z,4.01
2022-11-22T20:31:43.352Z,3.99
2022-11-22T20:34:11.802Z,3.85
2022-11-22T20:36:39.978Z,3.95
2022-11-22T20:39:10.401Z,3.74
2022-11-22T20:41:40.397Z,3.74
2022-11-22T20:44:13.958Z,3.75
2022-11-22T20:46:42.478Z,3.74
2022-11-22T20:49:10.804Z,3.53
2022-11-22T20:51:39.968Z,3.45
2022-11-22T20:54:09.011Z,3.40
2022-11-22T20:56:37.505Z,3.28
2022-11-22T20:59:06.004Z,3.20
2022-11-22T21:01:35.742Z,3.13
2022-11-22T21:04:06.583Z,3.06
2022-11-22T21:06:35.061Z,3.02
2022-11-22T21:09:03.474Z,2.97
2022-11-22T21:11:32.054Z,3.02
2022-11-22T21:14:00.459Z,2.95
2022-11-22T21:16:29.920Z,2.99
2022-11-22T21:19:01.580Z,2.78
2022-11-22T21:21:31.053Z,2.77
2022-11-22T21:24:01.063Z,2.89
2022-11-22T21:26:30.296Z,2.84
2022-11-22T21:28:59.597Z,2.59
2022-11-22T21:31:28.432Z,2.66
2022-11-22T21:33:56.901Z,2.70
2022-11-22T21:36:26.436Z,2.49
2022-11-22T21:38:54.615Z,2.44
2022-11-22T21:41:39.205Z,2.44
2022-11-22T21:44:08.513Z,2.38
2022-11-22T21:46:36.704Z,2.45
2022-11-22T21:49:04.929Z,2.45
2022-11-22T21:51:34.536Z,2.47
2022-11-22T21:54:03.828Z,2.48
2022-11-22T21:56:32.523Z,2.39
2022-11-22T21:59:01.083Z,2.38
2022-11-22T22:01:29.937Z,2.29
2022-11-22T22:03:58.208Z,2.38
2022-11-22T22:06:26.523Z,2.35
2022-11-22T22:08:56.567Z,1.58
2022-11-22T22:11:24.843Z,2.23
2022-11-22T22:13:55.014Z,2.21
2022-11-22T22:16:25.806Z,2.27
2022-11-22T22:18:54.740Z,2.14
2022-11-22T22:21:22.944Z,2.26
2022-11-22T22:23:51.234Z,2.14
2022-11-22T22:26:21.004Z,2.01
2022-11-22T22:28:49.233Z,1.11
2022-11-22T22:31:22.049Z,1.93
2022-11-22T22:33:52.571Z,1.77
2022-11-22T22:36:21.868Z,1.83
2022-11-22T22:38:50.512Z,1.94
2022-11-22T22:41:20.614Z,1.92
2022-11-22T22:43:50.613Z,1.77
2022-11-22T22:46:21.025Z,1.97
2022-11-22T22:48:50.743Z,1.88
2022-11-22T22:51:21.898Z,1.79
2022-11-22T22:53:51.151Z,1.76
2022-11-22T22:56:22.767Z,0.65
2022-11-22T22:58:55.466Z,1.72
2022-11-22T23:01:25.927Z,1.67
2022-11-22T23:03:57.351Z,1.78
2022-11-22T23:06:27.940Z,1.89
2022-11-22T23:08:57.530Z,1.75
2022-11-22T23:11:44.244Z,1.69
2022-11-22T23:14:13.116Z,1.72
2022-11-22T23:16:41.836Z,1.74
2022-11-22T23:19:11.884Z,1.60
2022-11-22T23:21:40.882Z,1.68
2022-11-22T23:24:09.927Z,1.66
2022-11-22T23:26:40.010Z,0.87
2022-11-22T23:29:08.348Z,1.42
2022-11-22T23:31:36.609Z,1.41
2022-11-22T23:34:12.409Z,1.38
2022-11-22T23:36:41.329Z,1.36
2022-11-22T23:39:10.324Z,1.31
2022-11-22T23:41:39.883Z,1.44
2022-11-22T23:44:08.455Z,1.41
2022-11-22T23:46:36.674Z,1.29
2022-11-22T23:49:06.165Z,1.29
2022-11-22T23:51:36.769Z,1.14
2022-11-22T23:54:06.977Z,1.26
2022-11-22T23:56:37.069Z,0.81
2022-11-22T23:59:06.799Z,1.21
